Windom, MN

9:40 AM CDT on September 18, 2019 (GMT -0500)
Windom Municipal

Weather History for KMWM - August, 2019

Change the Weather History Date:

Saturday, August 24, 2019

  Actual Average Record
Temperature  
Mean Temperature 65 °F -  
Max Temperature 73 °F 81 °F 99 °F (1948)
Min Temperature 57 °F 58 °F 42 °F (1956)
Growing Degree Days 15 (Base 50)    
Moisture  
Dew Point 55 °F    
Average Humidity 72    
Maximum Humidity 94    
Minimum Humidity 50    
Precipitation  
Precipitation 0.00 in - - ()
Sea Level Pressure  
Sea Level Pressure 30.15 in    
Wind  
Wind Speed 9 mph ()    
Max Wind Speed 20 mph    
Max Gust Speed 26 mph    
Visibility 10.0 miles    
Events      
Averages and records for this station are not official NWS values.
T = Trace of Precipitation, MM = Missing Value Source: Averaged Metar Reports

Daily Weather History Graph

Daily Weather History Graph

Search for Another Location

Airport or City:

Astronomy

Aug. 24, 2019 Rise Set
Actual Time 6:34 AM CDT 8:10 PM CDT
Civil Twilight 6:04 AM CDT 8:40 PM CDT
Nautical Twilight 5:27 AM CDT 9:17 PM CDT
Astronomical Twilight 4:47 AM CDT 9:56 PM CDT
Moon 12:24 AM CDT (8/24) 3:32 PM CDT (8/24)
Length of Visible Light 14h 36m
Length of Day
13h 35m
Last Quarter, 39% of the Moon is Illuminated
Aug 24
Last Quarter
Aug 30
New
Sep 5
First Quarter
Sep 13
Full
Sep 21
Last Quarter

Hourly Weather History & Observations

Time (CDT) Temp. Dew Point Humidity Pressure Visibility Wind Dir Wind Speed Gust Speed Precip Events Conditions
12:16 AM 62.6 °F 57.2 °F 82% 30.19 in 10.0 mi SE 4.6 mph - N/A   Clear
12:35 AM 62.6 °F 57.2 °F 82% 30.19 in 10.0 mi SE 5.8 mph - N/A   Clear
12:36 AM 62.6 °F 57.2 °F 82% 30.19 in 10.0 mi SE 5.8 mph - N/A   Clear
12:55 AM 62.6 °F 57.2 °F 82% 30.19 in 10.0 mi SE 5.8 mph - N/A   Clear
12:56 AM 62.6 °F 57.2 °F 82% 30.19 in 10.0 mi SE 5.8 mph - N/A   Clear
1:15 AM 60.8 °F 55.4 °F 82% 30.19 in 10.0 mi SE 5.8 mph - N/A   Clear
1:37 AM 60.8 °F 55.4 °F 82% 30.19 in 10.0 mi SE 6.9 mph - N/A   Clear
1:56 AM 60.8 °F 55.4 °F 82% 30.19 in 10.0 mi SE 6.9 mph - N/A   Clear
2:15 AM 60.8 °F 55.4 °F 82% 30.19 in 10.0 mi SE 9.2 mph - N/A   Clear
2:16 AM 60.8 °F 55.4 °F 82% 30.19 in 10.0 mi SE 8.1 mph - N/A   Clear
2:35 AM 60.8 °F 55.4 °F 82% 30.19 in 10.0 mi SSE 6.9 mph - N/A   Clear
2:40 AM 60.8 °F 55.4 °F 82% 30.19 in 10.0 mi SE 8.1 mph - N/A   Clear
2:57 AM 60.8 °F 55.4 °F 82% 30.18 in 10.0 mi SE 8.1 mph - N/A   Clear
3:16 AM 60.8 °F 55.4 °F 82% 30.18 in 10.0 mi SE 6.9 mph - N/A   Clear
3:35 AM 60.8 °F 55.4 °F 82% 30.18 in 10.0 mi SE 9.2 mph - N/A   Clear
3:36 AM 60.8 °F 55.4 °F 82% 30.18 in 10.0 mi SE 8.1 mph - N/A   Clear
3:55 AM 60.8 °F 55.4 °F 82% 30.18 in 10.0 mi SE 6.9 mph - N/A   Clear
3:56 AM 60.8 °F 55.4 °F 82% 30.18 in 10.0 mi SE 6.9 mph - N/A   Clear
4:18 AM 59.0 °F 55.4 °F 88% 30.18 in 10.0 mi SE 8.1 mph - N/A   Clear
4:36 AM 59.0 °F 55.4 °F 88% 30.19 in 10.0 mi SE 6.9 mph - N/A   Clear
4:56 AM 59.0 °F 55.4 °F 88% 30.19 in 10.0 mi SE 9.2 mph - N/A   Clear
5:15 AM 59.0 °F 55.4 °F 88% 30.19 in 10.0 mi SE 9.2 mph - N/A   Clear
5:16 AM 59.0 °F 55.4 °F 88% 30.19 in 10.0 mi SE 9.2 mph - N/A   Clear
5:35 AM 57.2 °F 55.4 °F 94% 30.20 in 10.0 mi SE 9.2 mph - N/A   Clear
5:57 AM 57.2 °F 55.4 °F 94% 30.19 in 10.0 mi SE 10.4 mph - N/A   Clear
6:15 AM 57.2 °F 55.4 °F 94% 30.19 in 10.0 mi SE 6.9 mph - N/A   Clear
6:35 AM 57.2 °F 55.4 °F 94% 30.20 in 10.0 mi SE 8.1 mph - N/A   Clear
6:36 AM 57.2 °F 55.4 °F 94% 30.20 in 10.0 mi SSE 8.1 mph - N/A   Clear
6:55 AM 57.2 °F 55.4 °F 94% 30.20 in 10.0 mi SE 8.1 mph - N/A   Clear
6:56 AM 57.2 °F 55.4 °F 94% 30.20 in 10.0 mi SE 8.1 mph - N/A   Clear
7:18 AM 57.2 °F 55.4 °F 94% 30.20 in 10.0 mi SE 9.2 mph - N/A   Clear
7:36 AM 60.8 °F 55.4 °F 82% 30.19 in 10.0 mi SE 10.4 mph - N/A   Clear
7:55 AM 60.8 °F 55.4 °F 82% 30.20 in 10.0 mi SE 10.4 mph - N/A   Clear
8:15 AM 60.8 °F 55.4 °F 82% 30.20 in 10.0 mi SE 12.7 mph 17.3 mph N/A   Clear
8:16 AM 60.8 °F 55.4 °F 82% 30.20 in 10.0 mi SE 12.7 mph 17.3 mph N/A   Clear
8:35 AM 62.6 °F 55.4 °F 77% 30.20 in 10.0 mi SE 15.0 mph 20.7 mph N/A   Clear
9:15 AM 62.6 °F 55.4 °F 77% 30.19 in 10.0 mi SSE 12.7 mph 17.3 mph N/A   Clear
9:35 AM 64.4 °F 55.4 °F 73% 30.19 in 10.0 mi SSE 12.7 mph 19.6 mph N/A   Clear
9:36 AM 64.4 °F 55.4 °F 73% 30.19 in 10.0 mi SSE 11.5 mph 19.6 mph N/A   Clear
9:55 AM 64.4 °F 55.4 °F 73% 30.19 in 10.0 mi SSE 13.8 mph 18.4 mph N/A   Clear
9:56 AM 64.4 °F 55.4 °F 73% 30.19 in 10.0 mi SSE 13.8 mph - N/A   Clear
10:18 AM 66.2 °F 55.4 °F 68% 30.19 in 10.0 mi SE 11.5 mph - N/A   Clear
10:36 AM 66.2 °F 55.4 °F 68% 30.18 in 10.0 mi SE 16.1 mph 21.9 mph N/A   Clear
10:56 AM 68.0 °F 55.4 °F 64% 30.18 in 10.0 mi SE 15.0 mph - N/A   Clear
11:15 AM 68.0 °F 55.4 °F 64% 30.17 in 10.0 mi SE 13.8 mph - N/A   Clear
11:16 AM 68.0 °F 55.4 °F 64% 30.17 in 10.0 mi SE 13.8 mph - N/A   Clear
11:35 AM 69.8 °F 55.4 °F 60% 30.17 in 10.0 mi ESE 12.7 mph - N/A   Clear
11:40 AM 69.8 °F 55.4 °F 60% 30.17 in 10.0 mi SE 13.8 mph - N/A   Clear
11:57 AM 69.8 °F 55.4 °F 60% 30.17 in 10.0 mi SSE 17.3 mph 21.9 mph N/A   Clear
12:16 PM 71.6 °F 57.2 °F 60% 30.17 in 10.0 mi SE 12.7 mph 17.3 mph N/A   Clear
12:35 PM 71.6 °F 55.4 °F 57% 30.16 in 10.0 mi SE 15.0 mph 24.2 mph N/A   Clear
12:36 PM 71.6 °F 55.4 °F 57% 30.16 in 10.0 mi SSE 15.0 mph 24.2 mph N/A   Clear
12:55 PM 71.6 °F 55.4 °F 57% 30.16 in 10.0 mi SE 13.8 mph 26.5 mph N/A   Clear
12:56 PM 71.6 °F 55.4 °F 57% 30.16 in 10.0 mi SE 13.8 mph 26.5 mph N/A   Scattered Clouds
1:18 PM 71.6 °F 55.4 °F 57% 30.15 in 10.0 mi SE 16.1 mph 20.7 mph N/A   Scattered Clouds
1:37 PM 71.6 °F 55.4 °F 57% 30.15 in 10.0 mi SE 12.7 mph 25.3 mph N/A   Clear
1:55 PM 73.4 °F 55.4 °F 53% 30.14 in 10.0 mi SE 15.0 mph 20.7 mph N/A   Clear
1:56 PM 73.4 °F 55.4 °F 53% 30.14 in 10.0 mi SE 15.0 mph 20.7 mph N/A   Clear
2:15 PM 73.4 °F 53.6 °F 50% 30.14 in 10.0 mi SSE 17.3 mph - N/A   Scattered Clouds
2:16 PM 73.4 °F 53.6 °F 50% 30.14 in 10.0 mi SSE 19.6 mph 23.0 mph N/A   Scattered Clouds
2:38 PM 73.4 °F 55.4 °F 53% 30.13 in 10.0 mi SE 15.0 mph 21.9 mph N/A   Scattered Clouds
2:56 PM 71.6 °F 55.4 °F 57% 30.13 in 10.0 mi SE 12.7 mph 21.9 mph N/A   Scattered Clouds
3:15 PM 73.4 °F 55.4 °F 53% 30.13 in 10.0 mi ESE 15.0 mph 24.2 mph N/A   Scattered Clouds
3:16 PM 73.4 °F 55.4 °F 53% 30.12 in 10.0 mi ESE 16.1 mph - N/A   Scattered Clouds
3:35 PM 69.8 °F 53.6 °F 56% 30.12 in 10.0 mi SSE 15.0 mph 20.7 mph N/A   Scattered Clouds
3:36 PM 69.8 °F 53.6 °F 56% 30.12 in 10.0 mi SSE 16.1 mph 20.7 mph N/A   Scattered Clouds
3:55 PM 71.6 °F 55.4 °F 57% 30.12 in 10.0 mi SE 16.1 mph 23.0 mph N/A   Scattered Clouds
4:35 PM 71.6 °F 53.6 °F 53% 30.12 in 10.0 mi SE 12.7 mph 20.7 mph N/A   Scattered Clouds
4:55 PM 69.8 °F 53.6 °F 56% 30.12 in 10.0 mi SE 11.5 mph 19.6 mph N/A   Mostly Cloudy
5:15 PM 69.8 °F 53.6 °F 56% 30.12 in 10.0 mi SE 13.8 mph 19.6 mph N/A   Mostly Cloudy
5:16 PM 69.8 °F 53.6 °F 56% 30.12 in 10.0 mi SE 12.7 mph - N/A   Mostly Cloudy
5:38 PM 69.8 °F 55.4 °F 60% 30.12 in 10.0 mi SSE 13.8 mph - N/A   Mostly Cloudy
5:56 PM 68.0 °F 55.4 °F 64% 30.12 in 10.0 mi SE 9.2 mph - N/A   Scattered Clouds
6:16 PM 68.0 °F 53.6 °F 60% 30.12 in 10.0 mi SE 10.4 mph - N/A   Mostly Cloudy
6:35 PM 68.0 °F 53.6 °F 60% 30.11 in 10.0 mi SE 8.1 mph - N/A   Mostly Cloudy
6:36 PM 68.0 °F 53.6 °F 60% 30.11 in 10.0 mi SE 8.1 mph - N/A   Mostly Cloudy
6:55 PM 68.0 °F 53.6 °F 60% 30.10 in 10.0 mi ESE 9.2 mph - N/A   Scattered Clouds
6:59 PM 66.2 °F 53.6 °F 64% 30.10 in 10.0 mi ESE 9.2 mph - N/A   Scattered Clouds
7:16 PM 66.2 °F 55.4 °F 68% 30.10 in 10.0 mi ESE 6.9 mph - N/A   Clear
7:36 PM 66.2 °F 55.4 °F 68% 30.10 in 10.0 mi ESE 6.9 mph - N/A   Clear
7:55 PM 64.4 °F 55.4 °F 73% 30.10 in 10.0 mi ESE 5.8 mph - N/A   Clear
7:56 PM 64.4 °F 55.4 °F 73% 30.10 in 10.0 mi ESE 5.8 mph - N/A   Clear
8:15 PM 62.6 °F 55.4 °F 77% 30.10 in 10.0 mi ESE 5.8 mph - N/A   Clear
8:38 PM 62.6 °F 53.6 °F 72% 30.09 in 10.0 mi ESE 5.8 mph - N/A   Clear
8:55 PM 60.8 °F 53.6 °F 77% 30.09 in 10.0 mi East 5.8 mph - N/A   Clear
9:15 PM 60.8 °F 53.6 °F 77% 30.09 in 10.0 mi ESE 5.8 mph - N/A   Clear
9:16 PM 60.8 °F 53.6 °F 77% 30.09 in 10.0 mi ESE 6.9 mph - N/A   Clear
9:36 PM 60.8 °F 53.6 °F 77% 30.09 in 10.0 mi ESE 6.9 mph - N/A   Clear
9:58 PM 60.8 °F 53.6 °F 77% 30.08 in 10.0 mi ESE 8.1 mph - N/A   Clear
10:16 PM 60.8 °F 53.6 °F 77% 30.08 in 10.0 mi ESE 8.1 mph - N/A   Clear
10:36 PM 62.6 °F 53.6 °F 72% 30.08 in 10.0 mi SE 8.1 mph - N/A   Clear
10:55 PM 60.8 °F 53.6 °F 77% 30.08 in 10.0 mi SE 6.9 mph - N/A   Clear
10:56 PM 60.8 °F 53.6 °F 77% 30.09 in 10.0 mi SE 6.9 mph - N/A   Clear
11:15 PM 60.8 °F 53.6 °F 77% 30.09 in 10.0 mi SSE 8.1 mph - N/A   Clear
11:37 PM 60.8 °F 53.6 °F 77% 30.08 in 10.0 mi SE 8.1 mph - N/A   Clear
11:56 PM 60.8 °F 53.6 °F 77% 30.08 in 10.0 mi SE 6.9 mph - N/A   Clear